sensor_id;sensor_type;location;lat;lon;timestamp;P1;durP1;ratioP1;P2;durP2;ratioP2
11691;SDS011;33659;42.672;23.354;2024-01-07T00:00:39;7.13;;;5.10;;
11691;SDS011;33659;42.672;23.354;2024-01-07T00:03:06;6.57;;;4.60;;
11691;SDS011;33659;42.672;23.354;2024-01-07T00:05:33;6.40;;;3.60;;
11691;SDS011;33659;42.672;23.354;2024-01-07T00:08:01;7.77;;;4.20;;
11691;SDS011;33659;42.672;23.354;2024-01-07T00:10:29;7.10;;;4.50;;
11691;SDS011;33659;42.672;23.354;2024-01-07T00:12:56;7.50;;;4.83;;
11691;SDS011;33659;42.672;23.354;2024-01-07T00:15:22;8.00;;;3.83;;
11691;SDS011;33659;42.672;23.354;2024-01-07T00:17:51;6.27;;;3.93;;
11691;SDS011;33659;42.672;23.354;2024-01-07T00:20:18;4.47;;;3.80;;
11691;SDS011;33659;42.672;23.354;2024-01-07T00:22:45;4.30;;;3.87;;
11691;SDS011;33659;42.672;23.354;2024-01-07T00:25:11;5.90;;;3.80;;
11691;SDS011;33659;42.672;23.354;2024-01-07T00:27:39;6.47;;;4.23;;
11691;SDS011;33659;42.672;23.354;2024-01-07T00:30:06;7.47;;;5.57;;
11691;SDS011;33659;42.672;23.354;2024-01-07T00:32:33;11.30;;;6.33;;
11691;SDS011;33659;42.672;23.354;2024-01-07T00:35:00;10.37;;;7.30;;
11691;SDS011;33659;42.672;23.354;2024-01-07T00:37:26;11.03;;;7.03;;
11691;SDS011;33659;42.672;23.354;2024-01-07T00:39:53;12.03;;;8.20;;
11691;SDS011;33659;42.672;23.354;2024-01-07T00:42:20;17.03;;;10.50;;
11691;SDS011;33659;42.672;23.354;2024-01-07T00:44:48;17.03;;;9.83;;
11691;SDS011;33659;42.672;23.354;2024-01-07T00:47:15;16.93;;;11.00;;
11691;SDS011;33659;42.672;23.354;2024-01-07T00:49:41;16.63;;;9.23;;
11691;SDS011;33659;42.672;23.354;2024-01-07T00:52:08;19.33;;;10.50;;
11691;SDS011;33659;42.672;23.354;2024-01-07T00:54:35;20.37;;;10.90;;
11691;SDS011;33659;42.672;23.354;2024-01-07T00:57:02;22.57;;;11.70;;
11691;SDS011;33659;42.672;23.354;2024-01-07T00:59:30;17.60;;;9.47;;
11691;SDS011;33659;42.672;23.354;2024-01-07T01:01:58;17.57;;;11.63;;
11691;SDS011;33659;42.672;23.354;2024-01-07T01:04:24;24.50;;;10.87;;
11691;SDS011;33659;42.672;23.354;2024-01-07T01:06:51;14.47;;;9.40;;
11691;SDS011;33659;42.672;23.354;2024-01-07T01:09:18;21.73;;;10.90;;
11691;SDS011;33659;42.672;23.354;2024-01-07T01:11:44;18.67;;;11.17;;
11691;SDS011;33659;42.672;23.354;2024-01-07T01:14:11;18.00;;;11.40;;
11691;SDS011;33659;42.672;23.354;2024-01-07T01:16:38;18.57;;;10.70;;
11691;SDS011;33659;42.672;23.354;2024-01-07T01:19:06;17.70;;;10.10;;
11691;SDS011;33659;42.672;23.354;2024-01-07T01:21:33;18.30;;;10.10;;
11691;SDS011;33659;42.672;23.354;2024-01-07T01:24:00;15.93;;;10.73;;
11691;SDS011;33659;42.672;23.354;2024-01-07T01:26:27;14.60;;;10.13;;
11691;SDS011;33659;42.672;23.354;2024-01-07T01:28:53;14.77;;;10.33;;
11691;SDS011;33659;42.672;23.354;2024-01-07T01:31:20;12.00;;;9.40;;
11691;SDS011;33659;42.672;23.354;2024-01-07T01:33:47;16.60;;;8.97;;
11691;SDS011;33659;42.672;23.354;2024-01-07T01:36:15;19.80;;;9.73;;
11691;SDS011;33659;42.672;23.354;2024-01-07T01:38:41;17.30;;;10.50;;
11691;SDS011;33659;42.672;23.354;2024-01-07T01:41:08;14.83;;;9.53;;
11691;SDS011;33659;42.672;23.354;2024-01-07T01:43:35;11.57;;;8.30;;
11691;SDS011;33659;42.672;23.354;2024-01-07T01:46:01;7.77;;;6.43;;
11691;SDS011;33659;42.672;23.354;2024-01-07T01:48:28;9.40;;;6.93;;
11691;SDS011;33659;42.672;23.354;2024-01-07T01:50:55;14.17;;;7.70;;
11691;SDS011;33659;42.672;23.354;2024-01-07T01:53:24;14.43;;;8.43;;
11691;SDS011;33659;42.672;23.354;2024-01-07T01:55:52;12.67;;;6.60;;
11691;SDS011;33659;42.672;23.354;2024-01-07T01:58:21;18.03;;;7.80;;
11691;SDS011;33659;42.672;23.354;2024-01-07T02:00:49;12.67;;;7.90;;
11691;SDS011;33659;42.672;23.354;2024-01-07T02:03:16;11.03;;;7.23;;
11691;SDS011;33659;42.672;23.354;2024-01-07T02:05:43;12.13;;;5.80;;
11691;SDS011;33659;42.672;23.354;2024-01-07T02:08:11;7.90;;;5.83;;
11691;SDS011;33659;42.672;23.354;2024-01-07T02:10:39;10.20;;;6.10;;
11691;SDS011;33659;42.672;23.354;2024-01-07T02:13:06;8.73;;;5.33;;
11691;SDS011;33659;42.672;23.354;2024-01-07T02:15:32;8.87;;;5.23;;
11691;SDS011;33659;42.672;23.354;2024-01-07T02:17:59;11.70;;;5.93;;
11691;SDS011;33659;42.672;23.354;2024-01-07T02:20:26;6.33;;;5.20;;
11691;SDS011;33659;42.672;23.354;2024-01-07T02:22:53;8.10;;;5.23;;
11691;SDS011;33659;42.672;23.354;2024-01-07T02:25:24;10.13;;;5.93;;
11691;SDS011;33659;42.672;23.354;2024-01-07T02:27:50;9.57;;;5.10;;
11691;SDS011;33659;42.672;23.354;2024-01-07T02:30:17;9.27;;;6.37;;
11691;SDS011;33659;42.672;23.354;2024-01-07T02:32:44;8.20;;;5.90;;
11691;SDS011;33659;42.672;23.354;2024-01-07T02:35:11;7.93;;;5.73;;
11691;SDS011;33659;42.672;23.354;2024-01-07T02:37:37;10.50;;;6.63;;
11691;SDS011;33659;42.672;23.354;2024-01-07T02:40:04;11.57;;;6.40;;
11691;SDS011;33659;42.672;23.354;2024-01-07T02:42:33;8.77;;;5.83;;
11691;SDS011;33659;42.672;23.354;2024-01-07T02:45:00;10.17;;;5.87;;
11691;SDS011;33659;42.672;23.354;2024-01-07T02:47:27;10.77;;;6.20;;
11691;SDS011;33659;42.672;23.354;2024-01-07T02:49:53;9.33;;;6.07;;
11691;SDS011;33659;42.672;23.354;2024-01-07T02:52:20;9.37;;;6.30;;
11691;SDS011;33659;42.672;23.354;2024-01-07T02:54:47;10.70;;;6.27;;
11691;SDS011;33659;42.672;23.354;2024-01-07T02:57:13;11.40;;;6.90;;
11691;SDS011;33659;42.672;23.354;2024-01-07T02:59:41;10.20;;;5.87;;
11691;SDS011;33659;42.672;23.354;2024-01-07T03:02:08;11.37;;;5.90;;
11691;SDS011;33659;42.672;23.354;2024-01-07T03:04:34;8.60;;;4.87;;
11691;SDS011;33659;42.672;23.354;2024-01-07T03:07:01;4.00;;;3.60;;
11691;SDS011;33659;42.672;23.354;2024-01-07T03:09:28;4.57;;;3.53;;
11691;SDS011;33659;42.672;23.354;2024-01-07T03:11:54;3.10;;;2.80;;
11691;SDS011;33659;42.672;23.354;2024-01-07T03:14:21;3.10;;;2.77;;
11691;SDS011;33659;42.672;23.354;2024-01-07T03:16:49;3.03;;;2.47;;
11691;SDS011;33659;42.672;23.354;2024-01-07T03:19:16;2.70;;;2.50;;
11691;SDS011;33659;42.672;23.354;2024-01-07T03:21:43;4.27;;;2.67;;
11691;SDS011;33659;42.672;23.354;2024-01-07T03:24:10;6.87;;;2.90;;
11691;SDS011;33659;42.672;23.354;2024-01-07T03:26:37;2.57;;;2.37;;
11691;SDS011;33659;42.672;23.354;2024-01-07T03:29:03;2.83;;;2.53;;
11691;SDS011;33659;42.672;23.354;2024-01-07T03:31:30;6.83;;;3.53;;
11691;SDS011;33659;42.672;23.354;2024-01-07T03:33:58;3.53;;;2.60;;
11691;SDS011;33659;42.672;23.354;2024-01-07T03:36:25;4.00;;;3.03;;
11691;SDS011;33659;42.672;23.354;2024-01-07T03:38:51;4.50;;;2.87;;
11691;SDS011;33659;42.672;23.354;2024-01-07T03:41:19;5.93;;;3.90;;
11691;SDS011;33659;42.672;23.354;2024-01-07T03:43:46;9.90;;;6.03;;
11691;SDS011;33659;42.672;23.354;2024-01-07T03:46:13;7.30;;;6.50;;
11691;SDS011;33659;42.672;23.354;2024-01-07T03:48:40;9.77;;;6.37;;
11691;SDS011;33659;42.672;23.354;2024-01-07T03:51:08;11.60;;;6.33;;
11691;SDS011;33659;42.672;23.354;2024-01-07T03:53:35;11.43;;;7.30;;
11691;SDS011;33659;42.672;23.354;2024-01-07T03:56:01;10.80;;;7.10;;
11691;SDS011;33659;42.672;23.354;2024-01-07T03:58:28;10.27;;;6.73;;
11691;SDS011;33659;42.672;23.354;2024-01-07T04:00:55;6.73;;;5.70;;
11691;SDS011;33659;42.672;23.354;2024-01-07T04:03:21;8.73;;;5.40;;
11691;SDS011;33659;42.672;23.354;2024-01-07T04:05:48;9.57;;;5.57;;
11691;SDS011;33659;42.672;23.354;2024-01-07T04:08:16;8.47;;;5.43;;
11691;SDS011;33659;42.672;23.354;2024-01-07T04:10:43;7.10;;;5.37;;
11691;SDS011;33659;42.672;23.354;2024-01-07T04:13:09;8.27;;;5.27;;
11691;SDS011;33659;42.672;23.354;2024-01-07T04:15:36;9.43;;;5.40;;
11691;SDS011;33659;42.672;23.354;2024-01-07T04:18:03;6.90;;;4.73;;
11691;SDS011;33659;42.672;23.354;2024-01-07T04:20:30;6.37;;;5.00;;
11691;SDS011;33659;42.672;23.354;2024-01-07T04:22:57;9.30;;;5.40;;
11691;SDS011;33659;42.672;23.354;2024-01-07T04:25:25;7.57;;;4.27;;
11691;SDS011;33659;42.672;23.354;2024-01-07T04:27:52;7.40;;;5.20;;
11691;SDS011;33659;42.672;23.354;2024-01-07T04:30:18;8.20;;;5.20;;
11691;SDS011;33659;42.672;23.354;2024-01-07T04:32:45;7.10;;;4.57;;
11691;SDS011;33659;42.672;23.354;2024-01-07T04:35:12;5.20;;;3.40;;
11691;SDS011;33659;42.672;23.354;2024-01-07T04:37:39;7.20;;;4.53;;
11691;SDS011;33659;42.672;23.354;2024-01-07T04:40:06;8.00;;;4.47;;
11691;SDS011;33659;42.672;23.354;2024-01-07T04:42:37;5.43;;;4.80;;
11691;SDS011;33659;42.672;23.354;2024-01-07T04:45:04;5.93;;;4.03;;
11691;SDS011;33659;42.672;23.354;2024-01-07T04:47:31;4.97;;;4.00;;
11691;SDS011;33659;42.672;23.354;2024-01-07T04:49:59;4.30;;;3.57;;
11691;SDS011;33659;42.672;23.354;2024-01-07T04:52:26;4.77;;;3.90;;
11691;SDS011;33659;42.672;23.354;2024-01-07T04:54:53;6.17;;;3.83;;
11691;SDS011;33659;42.672;23.354;2024-01-07T04:57:20;6.23;;;3.87;;
11691;SDS011;33659;42.672;23.354;2024-01-07T04:59:50;4.90;;;3.53;;
11691;SDS011;33659;42.672;23.354;2024-01-07T05:02:17;8.67;;;3.87;;
11691;SDS011;33659;42.672;23.354;2024-01-07T05:04:44;4.77;;;4.30;;
11691;SDS011;33659;42.672;23.354;2024-01-07T05:07:10;6.57;;;4.33;;
11691;SDS011;33659;42.672;23.354;2024-01-07T05:09:37;6.37;;;5.30;;
11691;SDS011;33659;42.672;23.354;2024-01-07T05:12:04;9.03;;;6.77;;
11691;SDS011;33659;42.672;23.354;2024-01-07T05:14:31;9.73;;;6.57;;
11691;SDS011;33659;42.672;23.354;2024-01-07T05:16:59;13.63;;;7.67;;
11691;SDS011;33659;42.672;23.354;2024-01-07T05:19:25;11.67;;;7.23;;
11691;SDS011;33659;42.672;23.354;2024-01-07T05:21:52;8.43;;;7.03;;
11691;SDS011;33659;42.672;23.354;2024-01-07T05:24:21;9.30;;;6.63;;
11691;SDS011;33659;42.672;23.354;2024-01-07T05:26:48;9.80;;;6.27;;
11691;SDS011;33659;42.672;23.354;2024-01-07T05:29:15;6.97;;;6.03;;
11691;SDS011;33659;42.672;23.354;2024-01-07T05:31:42;7.93;;;5.00;;
11691;SDS011;33659;42.672;23.354;2024-01-07T05:34:10;8.10;;;5.50;;
11691;SDS011;33659;42.672;23.354;2024-01-07T05:36:36;6.10;;;5.03;;
11691;SDS011;33659;42.672;23.354;2024-01-07T05:39:03;6.77;;;4.90;;
11691;SDS011;33659;42.672;23.354;2024-01-07T05:41:31;11.70;;;5.80;;
11691;SDS011;33659;42.672;23.354;2024-01-07T05:43:58;7.70;;;5.03;;
11691;SDS011;33659;42.672;23.354;2024-01-07T05:46:25;8.40;;;5.43;;
11691;SDS011;33659;42.672;23.354;2024-01-07T05:48:51;7.77;;;4.73;;
11691;SDS011;33659;42.672;23.354;2024-01-07T05:51:19;6.37;;;4.73;;
11691;SDS011;33659;42.672;23.354;2024-01-07T05:53:46;9.03;;;5.70;;
11691;SDS011;33659;42.672;23.354;2024-01-07T05:56:13;7.80;;;5.23;;
11691;SDS011;33659;42.672;23.354;2024-01-07T05:58:39;7.23;;;5.47;;
11691;SDS011;33659;42.672;23.354;2024-01-07T06:01:06;8.50;;;4.60;;
11691;SDS011;33659;42.672;23.354;2024-01-07T06:03:33;6.60;;;5.50;;
11691;SDS011;33659;42.672;23.354;2024-01-07T06:06:00;8.13;;;5.23;;
11691;SDS011;33659;42.672;23.354;2024-01-07T06:08:28;9.37;;;5.53;;
11691;SDS011;33659;42.672;23.354;2024-01-07T06:10:55;12.07;;;6.47;;
11691;SDS011;33659;42.672;23.354;2024-01-07T06:13:22;9.17;;;6.80;;
11691;SDS011;33659;42.672;23.354;2024-01-07T06:15:48;8.53;;;5.63;;
11691;SDS011;33659;42.672;23.354;2024-01-07T06:18:15;6.80;;;5.20;;
11691;SDS011;33659;42.672;23.354;2024-01-07T06:20:42;8.00;;;5.57;;
11691;SDS011;33659;42.672;23.354;2024-01-07T06:23:08;8.73;;;5.50;;
11691;SDS011;33659;42.672;23.354;2024-01-07T06:25:36;7.53;;;5.63;;
11691;SDS011;33659;42.672;23.354;2024-01-07T06:28:04;9.27;;;6.20;;
11691;SDS011;33659;42.672;23.354;2024-01-07T06:30:31;6.67;;;5.50;;
11691;SDS011;33659;42.672;23.354;2024-01-07T06:32:57;7.13;;;5.53;;
11691;SDS011;33659;42.672;23.354;2024-01-07T06:35:24;10.50;;;5.93;;
11691;SDS011;33659;42.672;23.354;2024-01-07T06:37:51;9.90;;;6.37;;
11691;SDS011;33659;42.672;23.354;2024-01-07T06:40:17;7.83;;;5.03;;
11691;SDS011;33659;42.672;23.354;2024-01-07T06:42:46;7.30;;;5.10;;
11691;SDS011;33659;42.672;23.354;2024-01-07T06:45:15;10.63;;;5.97;;
11691;SDS011;33659;42.672;23.354;2024-01-07T06:47:43;9.40;;;5.70;;
11691;SDS011;33659;42.672;23.354;2024-01-07T06:50:09;9.53;;;6.37;;
11691;SDS011;33659;42.672;23.354;2024-01-07T06:52:38;7.60;;;5.40;;
11691;SDS011;33659;42.672;23.354;2024-01-07T06:55:06;10.70;;;6.63;;
11691;SDS011;33659;42.672;23.354;2024-01-07T06:57:36;8.47;;;5.63;;
11691;SDS011;33659;42.672;23.354;2024-01-07T07:00:05;8.73;;;6.50;;
11691;SDS011;33659;42.672;23.354;2024-01-07T07:02:32;8.00;;;6.23;;
11691;SDS011;33659;42.672;23.354;2024-01-07T07:04:59;8.20;;;6.57;;
11691;SDS011;33659;42.672;23.354;2024-01-07T07:07:26;10.57;;;6.67;;
11691;SDS011;33659;42.672;23.354;2024-01-07T07:09:52;5.60;;;5.00;;
11691;SDS011;33659;42.672;23.354;2024-01-07T07:12:19;7.43;;;5.30;;
11691;SDS011;33659;42.672;23.354;2024-01-07T07:14:46;9.87;;;6.10;;
11691;SDS011;33659;42.672;23.354;2024-01-07T07:17:14;8.97;;;5.93;;
11691;SDS011;33659;42.672;23.354;2024-01-07T07:19:41;10.13;;;5.80;;
11691;SDS011;33659;42.672;23.354;2024-01-07T07:22:08;6.77;;;4.33;;
11691;SDS011;33659;42.672;23.354;2024-01-07T07:24:34;5.63;;;4.80;;
11691;SDS011;33659;42.672;23.354;2024-01-07T07:27:05;9.40;;;5.07;;
11691;SDS011;33659;42.672;23.354;2024-01-07T07:29:32;8.50;;;5.40;;
11691;SDS011;33659;42.672;23.354;2024-01-07T07:31:58;7.27;;;5.17;;
11691;SDS011;33659;42.672;23.354;2024-01-07T07:34:26;8.53;;;5.50;;
11691;SDS011;33659;42.672;23.354;2024-01-07T07:36:53;5.40;;;4.67;;
11691;SDS011;33659;42.672;23.354;2024-01-07T07:39:20;7.10;;;5.23;;
11691;SDS011;33659;42.672;23.354;2024-01-07T07:41:47;8.70;;;5.63;;
11691;SDS011;33659;42.672;23.354;2024-01-07T07:44:14;6.80;;;4.93;;
11691;SDS011;33659;42.672;23.354;2024-01-07T07:46:41;8.70;;;5.00;;
11691;SDS011;33659;42.672;23.354;2024-01-07T07:49:07;6.23;;;5.07;;
11691;SDS011;33659;42.672;23.354;2024-01-07T07:51:35;8.80;;;5.33;;
11691;SDS011;33659;42.672;23.354;2024-01-07T07:54:02;17.43;;;5.27;;
11691;SDS011;33659;42.672;23.354;2024-01-07T07:56:29;6.57;;;5.20;;
11691;SDS011;33659;42.672;23.354;2024-01-07T07:58:55;5.97;;;5.17;;
11691;SDS011;33659;42.672;23.354;2024-01-07T08:01:22;8.67;;;5.20;;
11691;SDS011;33659;42.672;23.354;2024-01-07T08:03:49;7.37;;;5.73;;
11691;SDS011;33659;42.672;23.354;2024-01-07T08:06:15;7.47;;;5.50;;
11691;SDS011;33659;42.672;23.354;2024-01-07T08:08:43;7.60;;;5.23;;
11691;SDS011;33659;42.672;23.354;2024-01-07T08:11:10;5.83;;;4.63;;
11691;SDS011;33659;42.672;23.354;2024-01-07T08:13:37;7.10;;;5.57;;
11691;SDS011;33659;42.672;23.354;2024-01-07T08:16:04;9.03;;;6.30;;
11691;SDS011;33659;42.672;23.354;2024-01-07T08:18:31;7.67;;;5.60;;
11691;SDS011;33659;42.672;23.354;2024-01-07T08:20:58;8.20;;;5.70;;
11691;SDS011;33659;42.672;23.354;2024-01-07T08:23:27;9.67;;;5.87;;
11691;SDS011;33659;42.672;23.354;2024-01-07T08:25:56;10.80;;;6.17;;
11691;SDS011;33659;42.672;23.354;2024-01-07T08:28:25;10.03;;;4.97;;
11691;SDS011;33659;42.672;23.354;2024-01-07T08:30:51;7.17;;;6.03;;
11691;SDS011;33659;42.672;23.354;2024-01-07T08:33:18;8.93;;;6.23;;
11691;SDS011;33659;42.672;23.354;2024-01-07T08:35:45;12.17;;;6.03;;
11691;SDS011;33659;42.672;23.354;2024-01-07T08:38:12;9.03;;;6.50;;
11691;SDS011;33659;42.672;23.354;2024-01-07T08:40:39;11.80;;;7.03;;
11691;SDS011;33659;42.672;23.354;2024-01-07T08:43:07;18.47;;;9.20;;
11691;SDS011;33659;42.672;23.354;2024-01-07T08:45:34;13.40;;;8.27;;
11691;SDS011;33659;42.672;23.354;2024-01-07T08:48:00;17.83;;;9.73;;
11691;SDS011;33659;42.672;23.354;2024-01-07T08:50:27;12.17;;;8.23;;
11691;SDS011;33659;42.672;23.354;2024-01-07T08:52:55;11.57;;;8.67;;
11691;SDS011;33659;42.672;23.354;2024-01-07T08:55:21;16.73;;;9.53;;
11691;SDS011;33659;42.672;23.354;2024-01-07T08:57:48;14.93;;;9.53;;
11691;SDS011;33659;42.672;23.354;2024-01-07T09:00:16;13.60;;;9.20;;
11691;SDS011;33659;42.672;23.354;2024-01-07T09:02:44;12.53;;;8.20;;
11691;SDS011;33659;42.672;23.354;2024-01-07T09:05:10;10.60;;;7.70;;
11691;SDS011;33659;42.672;23.354;2024-01-07T09:07:38;14.37;;;8.00;;
11691;SDS011;33659;42.672;23.354;2024-01-07T09:10:05;9.73;;;7.90;;
11691;SDS011;33659;42.672;23.354;2024-01-07T09:12:35;8.77;;;6.87;;
11691;SDS011;33659;42.672;23.354;2024-01-07T09:15:02;11.13;;;7.03;;
11691;SDS011;33659;42.672;23.354;2024-01-07T09:17:34;12.90;;;7.43;;
11691;SDS011;33659;42.672;23.354;2024-01-07T09:20:01;10.35;;;6.43;;
11691;SDS011;33659;42.672;23.354;2024-01-07T09:22:29;8.27;;;6.93;;
11691;SDS011;33659;42.672;23.354;2024-01-07T09:24:56;9.77;;;6.53;;
11691;SDS011;33659;42.672;23.354;2024-01-07T09:27:23;9.18;;;6.55;;
11691;SDS011;33659;42.672;23.354;2024-01-07T09:29:50;10.50;;;7.35;;
11691;SDS011;33659;42.672;23.354;2024-01-07T09:32:17;10.35;;;6.88;;
11691;SDS011;33659;42.672;23.354;2024-01-07T09:34:45;8.60;;;6.32;;
11691;SDS011;33659;42.672;23.354;2024-01-07T09:37:12;8.85;;;5.38;;
11691;SDS011;33659;42.672;23.354;2024-01-07T09:39:39;7.97;;;5.28;;
11691;SDS011;33659;42.672;23.354;2024-01-07T09:42:07;6.97;;;5.28;;
11691;SDS011;33659;42.672;23.354;2024-01-07T09:44:38;6.57;;;5.10;;
11691;SDS011;33659;42.672;23.354;2024-01-07T09:47:05;7.53;;;4.68;;
11691;SDS011;33659;42.672;23.354;2024-01-07T09:49:33;5.88;;;4.57;;
11691;SDS011;33659;42.672;23.354;2024-01-07T09:52:01;6.03;;;4.40;;
11691;SDS011;33659;42.672;23.354;2024-01-07T09:54:31;6.63;;;4.35;;
11691;SDS011;33659;42.672;23.354;2024-01-07T09:57:00;6.43;;;4.57;;
11691;SDS011;33659;42.672;23.354;2024-01-07T09:59:27;6.07;;;4.38;;
11691;SDS011;33659;42.672;23.354;2024-01-07T10:01:54;6.60;;;5.00;;
11691;SDS011;33659;42.672;23.354;2024-01-07T10:04:22;8.02;;;5.18;;
11691;SDS011;33659;42.672;23.354;2024-01-07T10:06:49;6.57;;;5.47;;
11691;SDS011;33659;42.672;23.354;2024-01-07T10:09:18;11.18;;;6.35;;
11691;SDS011;33659;42.672;23.354;2024-01-07T10:11:45;8.70;;;5.93;;
11691;SDS011;33659;42.672;23.354;2024-01-07T10:14:12;8.05;;;5.68;;
11691;SDS011;33659;42.672;23.354;2024-01-07T10:16:39;7.32;;;5.47;;
11691;SDS011;33659;42.672;23.354;2024-01-07T10:19:05;6.28;;;4.93;;
11691;SDS011;33659;42.672;23.354;2024-01-07T10:21:42;5.32;;;4.03;;
11691;SDS011;33659;42.672;23.354;2024-01-07T10:24:09;6.38;;;3.92;;
11691;SDS011;33659;42.672;23.354;2024-01-07T10:26:38;5.30;;;3.40;;
11691;SDS011;33659;42.672;23.354;2024-01-07T10:29:05;6.60;;;3.92;;
11691;SDS011;33659;42.672;23.354;2024-01-07T10:31:33;4.22;;;3.55;;
11691;SDS011;33659;42.672;23.354;2024-01-07T10:34:00;5.50;;;4.15;;
11691;SDS011;33659;42.672;23.354;2024-01-07T10:36:27;6.30;;;4.45;;
11691;SDS011;33659;42.672;23.354;2024-01-07T10:38:54;7.45;;;4.30;;
11691;SDS011;33659;42.672;23.354;2024-01-07T10:41:20;5.40;;;4.47;;
11691;SDS011;33659;42.672;23.354;2024-01-07T10:43:49;5.72;;;3.95;;
11691;SDS011;33659;42.672;23.354;2024-01-07T10:46:16;6.68;;;4.95;;
11691;SDS011;33659;42.672;23.354;2024-01-07T10:48:46;7.63;;;5.60;;
11691;SDS011;33659;42.672;23.354;2024-01-07T10:51:21;7.03;;;5.18;;
11691;SDS011;33659;42.672;23.354;2024-01-07T10:53:50;8.98;;;4.88;;
11691;SDS011;33659;42.672;23.354;2024-01-07T10:56:20;8.63;;;5.40;;
11691;SDS011;33659;42.672;23.354;2024-01-07T10:58:51;7.72;;;4.25;;
11691;SDS011;33659;42.672;23.354;2024-01-07T11:01:19;10.07;;;5.35;;
11691;SDS011;33659;42.672;23.354;2024-01-07T11:03:51;6.47;;;4.70;;
11691;SDS011;33659;42.672;23.354;2024-01-07T11:06:26;5.47;;;4.82;;
11691;SDS011;33659;42.672;23.354;2024-01-07T11:08:58;7.55;;;4.70;;
11691;SDS011;33659;42.672;23.354;2024-01-07T11:11:32;6.25;;;3.95;;
11691;SDS011;33659;42.672;23.354;2024-01-07T11:14:08;7.28;;;4.30;;
11691;SDS011;33659;42.672;23.354;2024-01-07T11:17:02;5.47;;;3.88;;
11691;SDS011;33659;42.672;23.354;2024-01-07T11:19:29;4.93;;;3.30;;
11691;SDS011;33659;42.672;23.354;2024-01-07T11:24:53;4.65;;;3.10;;
11691;SDS011;33659;42.672;23.354;2024-01-07T11:27:22;4.13;;;3.13;;
11691;SDS011;33659;42.672;23.354;2024-01-07T11:29:57;7.32;;;3.35;;
11691;SDS011;33659;42.672;23.354;2024-01-07T11:32:29;3.72;;;2.97;;
11691;SDS011;33659;42.672;23.354;2024-01-07T11:34:56;3.42;;;2.92;;
11691;SDS011;33659;42.672;23.354;2024-01-07T11:37:24;3.80;;;2.78;;
11691;SDS011;33659;42.672;23.354;2024-01-07T11:39:53;5.53;;;2.88;;
11691;SDS011;33659;42.672;23.354;2024-01-07T11:42:21;5.15;;;3.42;;
11691;SDS011;33659;42.672;23.354;2024-01-07T11:44:50;3.20;;;2.80;;
11691;SDS011;33659;42.672;23.354;2024-01-07T11:47:20;4.60;;;2.85;;
11691;SDS011;33659;42.672;23.354;2024-01-07T11:49:48;3.38;;;2.80;;
11691;SDS011;33659;42.672;23.354;2024-01-07T11:52:15;6.82;;;2.90;;
11691;SDS011;33659;42.672;23.354;2024-01-07T11:54:42;4.78;;;3.10;;
11691;SDS011;33659;42.672;23.354;2024-01-07T11:57:09;11.50;;;3.35;;
11691;SDS011;33659;42.672;23.354;2024-01-07T11:59:36;3.90;;;3.25;;
11691;SDS011;33659;42.672;23.354;2024-01-07T12:02:03;4.45;;;3.00;;
11691;SDS011;33659;42.672;23.354;2024-01-07T12:04:32;4.35;;;2.97;;
11691;SDS011;33659;42.672;23.354;2024-01-07T12:06:59;6.18;;;2.85;;
11691;SDS011;33659;42.672;23.354;2024-01-07T12:09:26;3.75;;;2.95;;
11691;SDS011;33659;42.672;23.354;2024-01-07T12:11:53;2.50;;;2.30;;
11691;SDS011;33659;42.672;23.354;2024-01-07T12:14:20;3.92;;;2.70;;
11691;SDS011;33659;42.672;23.354;2024-01-07T12:16:47;5.80;;;3.33;;
11691;SDS011;33659;42.672;23.354;2024-01-07T12:19:14;2.80;;;2.60;;
11691;SDS011;33659;42.672;23.354;2024-01-07T12:21:42;3.63;;;3.05;;
11691;SDS011;33659;42.672;23.354;2024-01-07T12:24:09;7.03;;;3.10;;
11691;SDS011;33659;42.672;23.354;2024-01-07T12:26:36;4.30;;;2.92;;
11691;SDS011;33659;42.672;23.354;2024-01-07T12:29:02;5.13;;;3.03;;
11691;SDS011;33659;42.672;23.354;2024-01-07T12:31:31;5.57;;;3.28;;
11691;SDS011;33659;42.672;23.354;2024-01-07T12:33:58;3.43;;;3.07;;
11691;SDS011;33659;42.672;23.354;2024-01-07T12:36:25;7.13;;;3.87;;
11691;SDS011;33659;42.672;23.354;2024-01-07T12:38:53;5.60;;;3.55;;
11691;SDS011;33659;42.672;23.354;2024-01-07T12:41:20;8.00;;;3.42;;
11691;SDS011;33659;42.672;23.354;2024-01-07T12:43:48;8.40;;;4.20;;
11691;SDS011;33659;42.672;23.354;2024-01-07T12:46:14;8.20;;;4.03;;
11691;SDS011;33659;42.672;23.354;2024-01-07T12:48:41;10.53;;;3.63;;
11691;SDS011;33659;42.672;23.354;2024-01-07T12:51:08;4.22;;;3.42;;
11691;SDS011;33659;42.672;23.354;2024-01-07T12:53:35;10.15;;;3.70;;
11691;SDS011;33659;42.672;23.354;2024-01-07T12:56:06;8.50;;;4.38;;
11691;SDS011;33659;42.672;23.354;2024-01-07T12:58:32;5.78;;;3.50;;
11691;SDS011;33659;42.672;23.354;2024-01-07T13:00:59;5.40;;;3.80;;
11691;SDS011;33659;42.672;23.354;2024-01-07T13:03:26;6.57;;;3.67;;
11691;SDS011;33659;42.672;23.354;2024-01-07T13:05:53;7.85;;;3.97;;
11691;SDS011;33659;42.672;23.354;2024-01-07T13:08:20;4.55;;;4.07;;
11691;SDS011;33659;42.672;23.354;2024-01-07T13:10:48;5.50;;;3.60;;
11691;SDS011;33659;42.672;23.354;2024-01-07T13:13:16;5.27;;;3.13;;
11691;SDS011;33659;42.672;23.354;2024-01-07T13:15:45;7.25;;;4.05;;
11691;SDS011;33659;42.672;23.354;2024-01-07T13:18:11;7.30;;;3.35;;
11691;SDS011;33659;42.672;23.354;2024-01-07T13:20:38;6.47;;;4.43;;
11691;SDS011;33659;42.672;23.354;2024-01-07T13:23:06;5.10;;;4.07;;
11691;SDS011;33659;42.672;23.354;2024-01-07T13:25:33;8.10;;;4.72;;
11691;SDS011;33659;42.672;23.354;2024-01-07T13:28:00;9.95;;;4.63;;
11691;SDS011;33659;42.672;23.354;2024-01-07T13:30:28;5.93;;;4.00;;
11691;SDS011;33659;42.672;23.354;2024-01-07T13:32:54;11.35;;;4.25;;
11691;SDS011;33659;42.672;23.354;2024-01-07T13:35:22;5.57;;;3.97;;
11691;SDS011;33659;42.672;23.354;2024-01-07T13:37:50;7.90;;;4.60;;
11691;SDS011;33659;42.672;23.354;2024-01-07T13:40:17;7.03;;;3.90;;
11691;SDS011;33659;42.672;23.354;2024-01-07T13:42:44;6.88;;;3.55;;
11691;SDS011;33659;42.672;23.354;2024-01-07T13:45:11;9.52;;;4.45;;
11691;SDS011;33659;42.672;23.354;2024-01-07T13:47:39;10.95;;;5.07;;
11691;SDS011;33659;42.672;23.354;2024-01-07T13:50:07;8.63;;;4.78;;
11691;SDS011;33659;42.672;23.354;2024-01-07T13:52:35;6.40;;;5.03;;
11691;SDS011;33659;42.672;23.354;2024-01-07T13:55:01;9.13;;;4.22;;
11691;SDS011;33659;42.672;23.354;2024-01-07T13:57:29;12.95;;;5.53;;
11691;SDS011;33659;42.672;23.354;2024-01-07T13:59:55;5.47;;;3.97;;
11691;SDS011;33659;42.672;23.354;2024-01-07T14:02:22;7.78;;;4.30;;
11691;SDS011;33659;42.672;23.354;2024-01-07T14:04:50;6.28;;;4.03;;
11691;SDS011;33659;42.672;23.354;2024-01-07T14:07:17;6.43;;;4.07;;
11691;SDS011;33659;42.672;23.354;2024-01-07T14:09:44;6.70;;;3.80;;
11691;SDS011;33659;42.672;23.354;2024-01-07T14:12:11;10.80;;;4.20;;
11691;SDS011;33659;42.672;23.354;2024-01-07T14:14:37;9.85;;;5.35;;
11691;SDS011;33659;42.672;23.354;2024-01-07T14:17:05;7.88;;;4.82;;
11691;SDS011;33659;42.672;23.354;2024-01-07T14:19:33;7.88;;;4.75;;
11691;SDS011;33659;42.672;23.354;2024-01-07T14:22:01;7.97;;;4.43;;
11691;SDS011;33659;42.672;23.354;2024-01-07T14:24:27;7.20;;;4.70;;
11691;SDS011;33659;42.672;23.354;2024-01-07T14:26:55;7.68;;;4.60;;
11691;SDS011;33659;42.672;23.354;2024-01-07T14:29:22;9.00;;;5.05;;
11691;SDS011;33659;42.672;23.354;2024-01-07T14:31:48;8.57;;;4.65;;
11691;SDS011;33659;42.672;23.354;2024-01-07T14:34:16;7.40;;;4.88;;